• Join FlightAware (Why Join?)
  • Login
  • US Flag 
07:30AM EDT


 

Airport Tracker/Info


-or-


 

Live Flight TrackerFlight Track Log ✈ RPA3247 ✈ 30-Apr-2013 ✈ KDCA - KMSY

Flight Track Log - Related Links

Times and Time Zones

All times are in EDT time to prevent confusion due to time zone crossing. See the RPA3247 flight status page for this flight to view local times or setup timezone preferences in your user account.

Time Position Orientation Groundspeed Altitude Reporting Facility
EDT Latitude Longitude Course Direction KTS MPH feet Rate Location/Type
07:59PM 38.8833 -77.0500 236° Southwest 166 191 1,400  Level Potomac TRACON
08:00PM 38.9167 -77.1000 311° West 236 272 3,200 2,280 Climbing Potomac TRACON
08:01PM 38.9833 -77.1833 316° Northwest 290 334 6,000 3,000 Climbing Potomac TRACON
08:02PM 38.6266 -77.4494 234° Southwest  Level FlightAware Approximate
08:02PM 39.0000 -77.2667 284° West 297 342 9,200  Level Potomac TRACON
08:03PM 38.5841 -77.5642 247° West  Level FlightAware Approximate
08:03PM 38.9500 -77.3500 232° Southwest 315 362 11,300  Level Potomac TRACON
08:04PM 38.5283 -77.6695 233° Southwest  Level FlightAware Approximate
08:04PM 38.8667 -77.4167 212° Southwest 344 396 13,700  Level Potomac TRACON
08:05PM 38.4661 -77.7677 236° Southwest  Level FlightAware Approximate
08:06PM 38.7225 -77.5422 214° Southwest 345 397 15,300  Level Washington Center
08:07PM 38.6400 -77.6144 214° Southwest 357 411 17,800 2,100 Climbing Washington Center
08:08PM 38.5553 -77.6892 215° Southwest 368 423 19,500 1,620 Climbing Washington Center
08:09PM 38.4786 -77.7797 223° Southwest 373 429 21,100 1,560 Climbing Washington Center
08:10PM 38.4222 -77.8919 237° Southwest 373 429 22,700 1,560 Climbing Washington Center
08:11PM 38.3617 -78.0067 236° Southwest 385 443 24,300 1,380 Climbing Washington Center
08:12PM 38.2986 -78.1264 236° Southwest 398 458 25,600 1,200 Climbing Washington Center
08:13PM 38.2356 -78.2458 236° Southwest 408 470 26,700 1,200 Climbing Washington Center
08:14PM 38.1703 -78.3728 237° Southwest 418 481 28,000 1,200 Climbing Washington Center
08:15PM 38.1089 -78.5025 239° Southwest 428 493 29,100 840 Climbing Washington Center
08:16PM 38.0681 -78.6275 247° West 428 493 29,800 420 Climbing Washington Center
08:17PM 38.0206 -78.7733 248° West 440 506 30,000 60 Climbing Washington Center
08:18PM 37.9664 -78.9289 246° West 445 512 30,000  Level Washington Center
08:19PM 37.9164 -79.0742 246° West 445 512 30,000  Level Washington Center
08:20PM 37.8561 -79.2083 240° Southwest 445 512 30,000  Level Washington Center
08:21PM 37.7961 -79.3264 237° Southwest 445 512 30,100 540 Climbing Washington Center
08:22PM 37.7314 -79.4594 238° Southwest 451 519 31,100 1,080 Climbing Washington Center
08:23PM 37.6558 -79.6025 236° Southwest 451 519 32,300 1,140 Climbing Washington Center
08:24PM 37.5975 -79.7228 239° Southwest 451 519 33,400 840 Climbing Washington Center
08:25PM 37.5258 -79.8628 237° Southwest 441 507 34,000  Climbing Washington Center
08:27PM 37.4492 -80.0071 236° Southwest  Level FlightAware Approximate
08:34PM 37.0688 -80.7411 246° West  Level FlightAware Approximate
08:35PM 37.0283 -80.8551 246° West  Level FlightAware Approximate
08:36PM 36.9877 -80.9690 246° West  Level FlightAware Approximate
08:37PM 36.9470 -81.0828 246° West  Level FlightAware Approximate
08:38PM 36.9062 -81.1964 246° West  Level FlightAware Approximate
08:39PM 36.8652 -81.3100 246° West  Level FlightAware Approximate
08:40PM 36.8242 -81.4234 246° West  Level FlightAware Approximate
08:41PM 36.7831 -81.5367 246° West  Level FlightAware Approximate
08:42PM 36.7418 -81.6499 246° West  Level FlightAware Approximate
08:42PM 36.6611 -81.8986 245° Southwest 401 461 34,000  Level Atlanta Center
08:43PM 36.7005 -81.7629 246° West  Level FlightAware Approximate
08:44PM 36.6590 -81.8759 245° Southwest  Level FlightAware Approximate
08:44PM 36.5372 -82.0740 229° Southwest  Level Estimated
08:45PM 36.6174 -81.9887 245° Southwest  Level FlightAware Approximate
08:46PM 36.5758 -82.1014 245° Southwest  Level FlightAware Approximate
08:46PM 36.4747 -82.3917 229° Southwest 401 461 34,000  Level Atlanta Center
08:47PM 36.5340 -82.2139 245° Southwest  Level FlightAware Approximate
08:48PM 36.3941 -82.6022 245° Southwest  Level FlightAware Approximate
08:50PM 36.2925 -82.8769 245° Southwest 401 461 34,000  Level Atlanta Center
08:51PM 36.0743 -82.7211 229° Southwest  Level Estimated
08:51PM 36.2478 -83.0039 246° West 401 461 34,000  Level Atlanta Center
08:52PM 36.2031 -83.1253 245° Southwest 401 461 34,000  Level Atlanta Center
08:53PM 36.1539 -83.2467 243° Southwest 401 461 34,000  Level Atlanta Center
08:54PM 36.1086 -83.3653 245° Southwest 394 453 34,000  Level Atlanta Center
08:55PM 36.0921 -83.3815 245° Southwest  Level FlightAware Approximate
08:55PM 36.0633 -83.4839 245° Southwest 389 448 34,000  Level Atlanta Center
08:56PM 36.0139 -83.6153 245° Southwest 384 442 34,000  Level Atlanta Center
08:57PM 35.9764 -83.7078 243° Southwest 384 442 34,000  Level Atlanta Center
08:58PM 35.9289 -83.8361 245° Southwest 384 442 34,000  Level Atlanta Center
08:59PM 35.8725 -83.9439 237° Southwest 384 442 34,000  Level Atlanta Center
09:00PM 35.7997 -84.0439 228° Southwest 389 448 34,000 -600 Level Atlanta Center
09:01PM 35.7286 -84.1411 228° Southwest 389 448 32,900 -1,500 Descending Atlanta Center
09:02PM 35.6575 -84.2406 229° Southwest 389 448 31,100 -960 Descending Atlanta Center
09:03PM 35.5844 -84.3453 229° Southwest 399 459 31,000 -60 Descending Atlanta Center
09:04PM 35.5089 -84.4469 228° Southwest 404 465 31,000  Level Atlanta Center
09:05PM 35.4333 -84.5511 228° Southwest 409 471 31,000 -780 Level Atlanta Center
09:06PM 35.3600 -84.6525 228° Southwest 409 471 29,500 -1,500 Descending Atlanta Center
09:07PM 35.2844 -84.7564 228° Southwest 409 471 28,000 -780 Descending Atlanta Center
09:08PM 35.2086 -84.8625 229° Southwest 409 471 28,000  Level Atlanta Center
09:09PM 35.1306 -84.9683 228° Southwest 414 476 28,000  Level Atlanta Center
09:10PM 35.0547 -85.0714 228° Southwest 414 476 28,000  Level Atlanta Center
09:11PM 34.9786 -85.1744 228° Southwest 414 476 28,000  Level Atlanta Center
09:12PM 34.9025 -85.2797 229° Southwest 414 476 28,000  Level Atlanta Center
09:13PM 34.8222 -85.3822 226° Southwest 414 476 28,000  Level Atlanta Center
09:14PM 34.7478 -85.4847 229° Southwest 414 476 28,000  Level Atlanta Center
09:15PM 34.6717 -85.5869 228° Southwest 409 471 28,000  Level Atlanta Center
09:16PM 34.5908 -85.6967 228° Southwest 409 471 28,000  Level Atlanta Center
09:17PM 34.5164 -85.7958 228° Southwest 409 471 28,000  Level Atlanta Center
09:18PM 34.4419 -85.8925 227° Southwest 409 471 28,000  Level Atlanta Center
09:19PM 34.3672 -85.9917 228° Southwest 409 471 28,000 -60 Level Atlanta Center
09:20PM 34.2928 -86.0881 227° Southwest 409 471 27,900 -840 Descending Atlanta Center
09:21PM 34.2181 -86.1867 228° Southwest 409 471 26,400 -960 Descending Atlanta Center
09:22PM 34.1453 -86.2828 228° Southwest 404 465 26,000 -240 Descending Atlanta Center
09:23PM 34.0747 -86.3761 228° Southwest 397 457 26,000  Level Atlanta Center
09:24PM 34.0042 -86.4694 228° Southwest 386 444 26,000  Level Atlanta Center
09:25PM 33.9311 -86.5650 227° Southwest 381 438 26,000  Level Atlanta Center
09:26PM 33.8583 -86.6553 226° Southwest 386 444 26,000  Level Atlanta Center
09:27PM 33.7853 -86.7506 227° Southwest 386 444 26,000  Level Atlanta Center
09:28PM 33.7144 -86.8408 227° Southwest 386 444 26,000  Level Atlanta Center
09:29PM 33.6453 -86.9383 230° Southwest 386 444 26,000  Level Atlanta Center
09:30PM 33.5761 -87.0383 230° Southwest 391 450 26,000  Level Atlanta Center
09:31PM 33.5111 -87.1381 232° Southwest 391 450 26,000  Level Atlanta Center
09:32PM 33.4436 -87.2403 232° Southwest 391 450 26,000  Level Atlanta Center
09:33PM 33.3786 -87.3375 231° Southwest 385 443 26,000  Level Atlanta Center
09:34PM 33.3111 -87.4392 232° Southwest 390 449 26,000  Level Atlanta Center
09:35PM 33.2436 -87.5383 231° Southwest 390 449 26,000  Level Atlanta Center
09:36PM 33.1781 -87.6400 232° Southwest 390 449 26,000 -660 Level Atlanta Center
09:37PM 33.1106 -87.7364 230° Southwest 390 449 24,700 -900 Descending Atlanta Center
09:38PM 33.0267 -87.8597 231° Southwest 374 430 24,000 -360 Descending Memphis Center
09:39PM 32.9700 -87.9481 233° Southwest 379 436 24,000  Level Memphis Center
09:40PM 32.9050 -88.0461 232° Southwest 379 436 24,000  Level Memphis Center
09:41PM 32.8381 -88.1419 230° Southwest 379 436 24,000  Level Memphis Center
09:42PM 32.7856 -88.2469 239° Southwest 374 430 24,000  Level Memphis Center
09:43PM 32.7497 -88.3639 250° West 374 430 24,000  Level Memphis Center
09:44PM 32.7161 -88.4831 251° West 380 437 24,000  Level Memphis Center
09:45PM 32.6825 -88.6025 252° West 380 437 24,000  Level Memphis Center
09:46PM 32.6464 -88.7217 250° West 386 444 24,000  Level Memphis Center
09:47PM 32.6125 -88.8381 251° West 386 444 24,000  Level Memphis Center
09:48PM 32.5806 -88.9569 252° West 386 444 24,000  Level Memphis Center
09:49PM 32.5381 -89.0883 249° West 392 451 24,000  Level Memphis Center
09:50PM 32.4975 -89.2022 247° West 387 445 24,000  Level Memphis Center
09:51PM 32.4547 -89.3158 246° West 381 438 24,000  Level Memphis Center
09:52PM 32.4094 -89.4247 244° Southwest 376 433 24,000  Level Memphis Center
09:53PM 32.3664 -89.5358 245° Southwest 376 433 24,000  Level Memphis Center
09:54PM 32.3211 -89.6419 243° Southwest 371 427 24,000  Level Memphis Center
09:55PM 32.2592 -89.7383 233° Southwest 371 427 24,000  Level Memphis Center
09:56PM 32.1653 -89.7708 196° South 341 392 24,000  Level Memphis Center
09:57PM 32.0672 -89.7983 193° South 347 399 24,000 -660 Level Memphis Center
09:58PM 31.9264 -89.8347 192° South 362 417 22,400 -780 Descending Houston Center
09:59PM 31.8186 -89.8639 193° South 351 404 22,000 -240 Descending Houston Center
10:00PM 31.7222 -89.8889 192° South 353 406 22,000  Level Houston Center
10:02PM 31.6250 -89.9150 193° South 358 412 22,000  Level Houston Center
10:03PM 31.5261 -89.9419 193° South 363 418 22,000  Level Houston Center
10:04PM 31.4292 -89.9678 193° South 360 414 22,000  Level Houston Center
10:05PM 31.3367 -89.9925 193° South 345 397 22,000  Level Houston Center
10:06PM 31.2347 -90.0189 192° South 371 427 22,000  Level Houston Center
10:07PM 31.1253 -90.0483 193° South 400 460 22,000 -360 Level Houston Center
10:08PM 30.9933 -90.0831 193° South 404 465 21,300 -1,680 Descending Houston Center
10:09PM 30.8853 -90.1108 192° South 401 461 18,700 -2,520 Descending Houston Center
10:10PM 30.7825 -90.1392 193° South 383 441 16,200 -2,580 Descending Houston Center
10:10PM 30.7397 -90.1506 193° South 371 427 15,100 -2,460 Descending Houston Center
10:12PM 30.5850 -90.1914 193° South 367 422 11,300 -2,220 Descending Houston Center
10:12PM 30.5281 -90.2003 188° South 306 352 10,300 -1,500 Descending Houston Center
10:13PM 30.5036 -90.1994 178° South 311 358 9,800 -1,620 Descending Houston Center
10:13PM 30.4547 -90.1889 169° South 257 296 8,700 -1,680 Descending Houston Center
10:14PM 30.4333 -90.1792 159° South 271 312 8,100 -1,620 Descending Houston Center
10:14PM 30.3869 -90.1625 163° South 254 292 7,100 -1,500 Descending Houston Center
10:15PM 30.3669 -90.1533 158° South 259 298 6,600 -1,800 Descending Houston Center
10:15PM 30.3197 -90.1461 172° South 251 289 5,300 -1,800 Descending Houston Center
10:16PM 30.2992 -90.1508 191° South 255 293 4,800 -1,320 Descending Houston Center
10:18PM 30.1742 -90.1908 195° South 212 244 2,100 -1,140 Descending Houston Center
10:18PM 30.1417 -90.2017 196° South 203 234 2,000 -120 Descending Houston Center
10:19PM 30.1206 -90.2086 196° South 206 237 2,000 -120 Level Houston Center
10:19PM 30.0919 -90.2181 196° South 181 208 1,900 -540 Descending Houston Center
10:20PM 30.0731 -90.2242 196° South 193 222 1,500 -900 Descending Houston Center
10:20PM 30.0486 -90.2317 195° South 163 188 1,000 -840 Descending Houston Center
10:21PM 30.0333 -90.2361 194° South 171 197 700 -660 Descending Houston Center